| time (UTC) | temp F | wind direction | speed MPH | gust MPH | rain 1hr in | rain 24hr in | rain mn in | humidity % | barometer mb |
| 20260509033059 | 56 | 0 | 0.0 | 2.0 | 0.00 | 0.00 | 0.00 | 87 | 1010.1 |
| 20260509031558 | 56 | 209 | 0.0 | 5.0 | 0.00 | 0.00 | 0.00 | 86 | 1010.3 |
| 20260509030057 | 57 | 0 | 0.0 | 4.0 | 0.00 | 0.00 | 0.00 | 83 | 1010.5 |
| 20260509024558 | 57 | 0 | 0.0 | 4.0 | 0.00 | 0.00 | 0.00 | 81 | 1010.7 |
| 20260509023057 | 59 | 119 | 2.0 | 7.0 | 0.00 | 0.00 | 0.00 | 77 | 1010.8 |
| 20260509021558 | 60 | 112 | 1.0 | 10.0 | 0.00 | 0.00 | 0.00 | 68 | 1010.6 |
| 20260509020058 | 61 | 0 | 0.0 | 0.0 | 0.00 | 0.00 | 0.00 | 63 | 1010.3 |
| 20260509014556 | 62 | 0 | 0.0 | 1.0 | 0.00 | 0.00 | 0.00 | 58 | 1010.0 |
| 20260509013058 | 62 | 0 | 0.0 | 1.0 | 0.00 | 0.00 | 0.00 | 58 | 1009.7 |
| 20260509011556 | 63 | 0 | 0.0 | 2.0 | 0.00 | 0.00 | 0.00 | 57 | 1009.6 |
| 20260509010104 | 63 | 0 | 0.0 | 2.0 | 0.00 | 0.00 | 0.00 | 54 | 1009.5 |
| 20260509004621 | 64 | 0 | 0.0 | 3.0 | 0.00 | 0.00 | 0.00 | 52 | 1009.6 |
| 20260509003057 | 64 | 319 | 1.0 | 4.0 | 0.00 | 0.00 | 0.00 | 53 | 1009.7 |
| 20260509001557 | 65 | 355 | 0.0 | 3.0 | 0.00 | 0.00 | 0.00 | 50 | 1009.6 |
| 20260509000059 | 65 | 347 | 1.0 | 5.0 | 0.00 | 0.00 | 0.00 | 49 | 1009.6 |
| 20260508234607 | 66 | 5 | 1.0 | 5.0 | 0.00 | 0.00 | 0.00 | 50 | 1009.6 |
| 20260508233104 | 66 | 326 | 3.0 | 6.0 | 0.00 | 0.00 | 0.00 | 46 | 1009.6 |
| 20260508230106 | 67 | 352 | 5.0 | 12.0 | 0.00 | 0.00 | 0.00 | 44 | 1009.7 |
| 20260508224605 | 67 | 306 | 2.0 | 16.0 | 0.00 | 0.00 | 0.00 | 45 | 1009.7 |
| 20260508223057 | 67 | 331 | 3.0 | 12.0 | 0.00 | 0.00 | 0.00 | 44 | 1009.7 |
| 20260508221606 | 67 | 23 | 4.0 | 11.0 | 0.00 | 0.00 | 0.00 | 45 | 1009.6 |
| 20260508214613 | 67 | 11 | 2.0 | 11.0 | 0.00 | 0.00 | 0.00 | 44 | 1009.4 |
| 20260508213101 | 67 | 350 | 5.0 | 14.0 | 0.00 | 0.00 | 0.00 | 41 | 1009.5 |
| 20260508211558 | 68 | 5 | 10.0 | 16.0 | 0.00 | 0.00 | 0.00 | 41 | 1009.7 |
| 20260508210059 | 68 | 331 | 5.0 | 15.0 | 0.00 | 0.00 | 0.00 | 41 | 1009.7 |
| 20260508204556 | 69 | 337 | 10.0 | 20.0 | 0.00 | 0.00 | 0.00 | 39 | 1009.9 |
| 20260508203056 | 69 | 305 | 5.0 | 15.0 | 0.00 | 0.00 | 0.00 | 41 | 1010.2 |
| 20260508201557 | 69 | 355 | 6.0 | 17.0 | 0.00 | 0.00 | 0.00 | 39 | 1010.3 |
| 20260508200059 | 69 | 22 | 4.0 | 17.0 | 0.00 | 0.00 | 0.00 | 40 | 1010.8 |
| 20260508194556 | 69 | 322 | 9.0 | 21.0 | 0.00 | 0.00 | 0.00 | 40 | 1011.1 |
| 20260508193110 | 67 | 348 | 6.0 | 12.0 | 0.00 | 0.00 | 0.00 | 42 | 1011.4 |
| 20260508191559 | 67 | 333 | 8.0 | 20.0 | 0.00 | 0.00 | 0.00 | 40 | 1011.6 |
| 20260508190113 | 67 | 57 | 9.0 | 16.0 | 0.00 | 0.00 | 0.00 | 42 | 1011.6 |
| 20260508184602 | 68 | 330 | 5.0 | 19.0 | 0.00 | 0.00 | 0.00 | 43 | 1011.5 |
| 20260508183116 | 67 | 302 | 8.0 | 16.0 | 0.00 | 0.00 | 0.00 | 40 | 1011.6 |
| 20260508181601 | 67 | 330 | 8.0 | 17.0 | 0.00 | 0.00 | 0.00 | 42 | 1012.0 |
| 20260508180110 | 67 | 340 | 10.0 | 18.0 | 0.00 | 0.00 | 0.00 | 41 | 1012.3 |
| 20260508174614 | 67 | 297 | 9.0 | 19.0 | 0.00 | 0.00 | 0.00 | 41 | 1012.5 |
| 20260508173101 | 66 | 23 | 9.0 | 18.0 | 0.00 | 0.00 | 0.00 | 45 | 1012.8 |
| 20260508171606 | 66 | 294 | 9.0 | 17.0 | 0.00 | 0.00 | 0.00 | 47 | 1013.2 |
| 20260508170107 | 65 | 336 | 10.0 | 19.0 | 0.00 | 0.00 | 0.00 | 47 | 1013.3 |
| 20260508164601 | 64 | 350 | 7.0 | 16.0 | 0.00 | 0.00 | 0.00 | 49 | 1013.8 |
| 20260508163103 | 64 | 5 | 7.0 | 16.0 | 0.00 | 0.00 | 0.00 | 52 | 1014.1 |
| 20260508161611 | 63 | 344 | 8.0 | 15.0 | 0.00 | 0.00 | 0.00 | 49 | 1014.3 |
| 20260508160100 | 63 | 302 | 4.0 | 12.0 | 0.00 | 0.00 | 0.00 | 50 | 1014.4 |
| 20260508154601 | 62 | 355 | 7.0 | 17.0 | 0.00 | 0.00 | 0.00 | 53 | 1014.7 |
| 20260508153100 | 62 | 318 | 11.0 | 19.0 | 0.00 | 0.00 | 0.00 | 51 | 1014.7 |
| 20260508151559 | 61 | 315 | 6.0 | 20.0 | 0.00 | 0.00 | 0.00 | 52 | 1014.7 |
| 20260508144602 | 61 | 351 | 4.0 | 16.0 | 0.00 | 0.00 | 0.00 | 52 | 1015.5 |
| 20260508143101 | 60 | 355 | 8.0 | 15.0 | 0.00 | 0.00 | 0.00 | 53 | 1015.5 |
| 20260508141607 | 60 | 32 | 2.0 | 11.0 | 0.00 | 0.00 | 0.00 | 55 | 1015.5 |
| 20260508140056 | 58 | 342 | 4.0 | 15.0 | 0.00 | 0.00 | 0.00 | 55 | 1015.7 |
| 20260508134559 | 57 | 19 | 4.0 | 12.0 | 0.00 | 0.00 | 0.00 | 56 | 1015.7 |
| 20260508133100 | 56 | 32 | 5.0 | 13.0 | 0.00 | 0.00 | 0.00 | 59 | 1015.5 |
| 20260508131607 | 54 | 340 | 5.0 | 13.0 | 0.00 | 0.00 | 0.00 | 60 | 1015.5 |
| 20260508130057 | 53 | 5 | 6.0 | 11.0 | 0.00 | 0.00 | 0.00 | 61 | 1015.6 |
| 20260508124600 | 52 | 360 | 4.0 | 10.0 | 0.00 | 0.00 | 0.00 | 66 | 1015.6 |
| 20260508123115 | 50 | 355 | 5.0 | 11.0 | 0.00 | 0.00 | 0.00 | 67 | 1015.5 |
| 20260508121608 | 48 | 347 | 2.0 | 5.0 | 0.00 | 0.00 | 0.00 | 71 | 1015.4 |
| 20260508120110 | 46 | 350 | 1.0 | 3.0 | 0.00 | 0.00 | 0.00 | 78 | 1015.3 |
| 20260508114602 | 44 | 0 | 0.0 | 2.0 | 0.00 | 0.00 | 0.00 | 80 | 1015.3 |
| 20260508113108 | 40 | 0 | 0.0 | 0.0 | 0.00 | 0.00 | 0.00 | 87 | 1015.1 |
| 20260508111558 | 40 | 0 | 0.0 | 0.0 | 0.00 | 0.00 | 0.00 | 90 | 1015.0 |
| 20260508110108 | 40 | 0 | 0.0 | 0.0 | 0.00 | 0.00 | 0.00 | 89 | 1014.8 |
| 20260508104559 | 40 | 0 | 0.0 | 0.0 | 0.00 | 0.01 | 0.00 | 89 | 1014.7 |
| 20260508103108 | 40 | 0 | 0.0 | 0.0 | 0.00 | 0.01 | 0.00 | 87 | 1014.7 |
| 20260508101558 | 41 | 0 | 0.0 | 0.0 | 0.00 | 0.01 | 0.00 | 85 | 1014.8 |
| 20260508100059 | 41 | 0 | 0.0 | 0.0 | 0.00 | 0.01 | 0.00 | 84 | 1014.8 |
| 20260508094600 | 41 | 0 | 0.0 | 0.0 | 0.00 | 0.01 | 0.00 | 86 | 1014.8 |
| 20260508093105 | 41 | 0 | 0.0 | 0.0 | 0.00 | 0.01 | 0.00 | 85 | 1014.9 |
| 20260508091557 | 40 | 0 | 0.0 | 0.0 | 0.00 | 0.01 | 0.00 | 88 | 1014.7 |
| 20260508090113 | 40 | 0 | 0.0 | 0.0 | 0.00 | 0.01 | 0.00 | 92 | 1014.8 |
| 20260508084600 | 39 | 0 | 0.0 | 0.0 | 0.00 | 0.01 | 0.00 | 93 | 1014.8 |
| 20260508083103 | 38 | 0 | 0.0 | 0.0 | 0.00 | 0.01 | 0.00 | 93 | 1014.7 |
| 20260508081610 | 38 | 0 | 0.0 | 0.0 | 0.00 | 0.01 | 0.00 | 93 | 1014.7 |
| 20260508074557 | 39 | 0 | 0.0 | 0.0 | 0.00 | 0.01 | 0.00 | 93 | 1014.8 |
| 20260508073059 | 39 | 0 | 0.0 | 0.0 | 0.00 | 0.01 | 0.00 | 92 | 1014.8 |
| 20260508071558 | 39 | 0 | 0.0 | 0.0 | 0.00 | 0.01 | 0.00 | 92 | 1014.9 |
| 20260508070059 | 39 | 0 | 0.0 | 0.0 | 0.00 | 0.01 | 0.00 | 92 | 1014.7 |
| 20260508064558 | 39 | 0 | 0.0 | 0.0 | 0.00 | 0.01 | 0.00 | 92 | 1015.1 |
| 20260508063104 | 39 | 0 | 0.0 | 0.0 | 0.00 | 0.01 | 0.00 | 92 | 1015.2 |
| 20260508061557 | 39 | 0 | 0.0 | 0.0 | 0.00 | 0.01 | 0.00 | 92 | 1015.4 |
| 20260508060056 | 40 | 0 | 0.0 | 0.0 | 0.00 | 0.01 | 0.00 | 92 | 1015.6 |
| 20260508054557 | 40 | 0 | 0.0 | 0.0 | 0.00 | 0.01 | 0.00 | 91 | 1015.7 |
| 20260508053106 | 40 | 0 | 0.0 | 0.0 | 0.00 | 0.01 | 0.00 | 90 | 1015.7 |
| 20260508051558 | 41 | 0 | 0.0 | 0.0 | 0.00 | 0.01 | 0.00 | 90 | 1015.5 |
| 20260508044558 | 41 | 0 | 0.0 | 0.0 | 0.00 | 0.01 | 0.00 | 89 | 1015.4 |
| 20260508043104 | 41 | 0 | 0.0 | 0.0 | 0.00 | 0.01 | 0.00 | 90 | 1015.4 |
| 20260508041601 | 41 | 0 | 0.0 | 0.0 | 0.00 | 0.01 | 0.00 | 89 | 1015.7 |
| 20260508040056 | 42 | 0 | 0.0 | 0.0 | 0.00 | 0.01 | 0.00 | 89 | 1015.5 |
| 20260508034612 | 42 | 0 | 0.0 | 0.0 | 0.00 | 0.01 | 0.01 | 88 | 1015.5 |